sensor_id;sensor_type;location;lat;lon;timestamp;pressure;altitude;pressure_sealevel;temperature;humidity
61769;BME280;47669;48.712;9.016;2022-12-08T00:01:40;96139.25;;;-2.12;100.00
61769;BME280;47669;48.712;9.016;2022-12-08T00:04:05;96144.66;;;-2.06;100.00
61769;BME280;47669;48.712;9.016;2022-12-08T00:06:34;96144.47;;;-1.86;100.00
61769;BME280;47669;48.712;9.016;2022-12-08T00:11:51;96142.56;;;-2.02;100.00
61769;BME280;47669;48.712;9.016;2022-12-08T00:14:17;96140.50;;;-2.16;100.00
61769;BME280;47669;48.712;9.016;2022-12-08T00:16:43;96133.91;;;-2.37;100.00
61769;BME280;47669;48.712;9.016;2022-12-08T00:19:08;96142.00;;;-2.32;100.00
61769;BME280;47669;48.712;9.016;2022-12-08T00:21:33;96139.22;;;-2.39;100.00
61769;BME280;47669;48.712;9.016;2022-12-08T00:23:58;96141.47;;;-2.53;100.00
61769;BME280;47669;48.712;9.016;2022-12-08T00:26:24;96131.84;;;-2.33;100.00
61769;BME280;47669;48.712;9.016;2022-12-08T00:28:49;96128.97;;;-2.30;100.00
61769;BME280;47669;48.712;9.016;2022-12-08T00:31:14;96134.19;;;-2.40;100.00
61769;BME280;47669;48.712;9.016;2022-12-08T00:33:40;96125.28;;;-2.46;100.00
61769;BME280;47669;48.712;9.016;2022-12-08T00:36:07;96125.28;;;-2.64;100.00
61769;BME280;47669;48.712;9.016;2022-12-08T00:38:32;96121.50;;;-2.69;100.00
61769;BME280;47669;48.712;9.016;2022-12-08T00:40:57;96118.00;;;-2.68;100.00
61769;BME280;47669;48.712;9.016;2022-12-08T00:43:23;96113.56;;;-2.58;100.00
61769;BME280;47669;48.712;9.016;2022-12-08T00:45:48;96113.25;;;-2.73;100.00
61769;BME280;47669;48.712;9.016;2022-12-08T00:48:13;96114.03;;;-2.63;100.00
61769;BME280;47669;48.712;9.016;2022-12-08T00:50:39;96106.72;;;-2.67;100.00
61769;BME280;47669;48.712;9.016;2022-12-08T00:53:04;96110.75;;;-2.65;100.00
61769;BME280;47669;48.712;9.016;2022-12-08T00:55:29;96114.06;;;-2.72;100.00
61769;BME280;47669;48.712;9.016;2022-12-08T00:57:54;96111.50;;;-2.72;100.00
61769;BME280;47669;48.712;9.016;2022-12-08T01:00:20;96104.78;;;-2.83;100.00
61769;BME280;47669;48.712;9.016;2022-12-08T01:02:45;96105.47;;;-2.81;100.00
61769;BME280;47669;48.712;9.016;2022-12-08T01:05:10;96109.16;;;-2.84;100.00
61769;BME280;47669;48.712;9.016;2022-12-08T01:07:36;96110.53;;;-2.89;100.00
61769;BME280;47669;48.712;9.016;2022-12-08T01:10:01;96107.56;;;-2.94;100.00
61769;BME280;47669;48.712;9.016;2022-12-08T01:12:28;96104.72;;;-2.91;100.00
61769;BME280;47669;48.712;9.016;2022-12-08T01:14:54;96111.66;;;-3.02;100.00
61769;BME280;47669;48.712;9.016;2022-12-08T01:17:19;96111.34;;;-2.89;100.00
61769;BME280;47669;48.712;9.016;2022-12-08T01:19:44;96109.47;;;-2.97;100.00
61769;BME280;47669;48.712;9.016;2022-12-08T01:22:10;96099.19;;;-2.97;100.00
61769;BME280;47669;48.712;9.016;2022-12-08T01:24:35;96114.06;;;-2.90;100.00
61769;BME280;47669;48.712;9.016;2022-12-08T01:27:00;96116.28;;;-2.95;100.00
61769;BME280;47669;48.712;9.016;2022-12-08T01:29:26;96116.81;;;-3.02;100.00
61769;BME280;47669;48.712;9.016;2022-12-08T01:31:51;96114.75;;;-3.16;100.00
61769;BME280;47669;48.712;9.016;2022-12-08T01:34:16;96113.53;;;-3.22;100.00
61769;BME280;47669;48.712;9.016;2022-12-08T01:36:42;96119.22;;;-3.18;100.00
61769;BME280;47669;48.712;9.016;2022-12-08T01:39:13;96114.53;;;-3.23;100.00
61769;BME280;47669;48.712;9.016;2022-12-08T01:41:38;96110.75;;;-3.28;100.00
61769;BME280;47669;48.712;9.016;2022-12-08T01:46:34;96118.22;;;-3.35;100.00
61769;BME280;47669;48.712;9.016;2022-12-08T01:49:04;96109.41;;;-3.32;100.00
61769;BME280;47669;48.712;9.016;2022-12-08T01:51:35;96114.78;;;-3.26;100.00
61769;BME280;47669;48.712;9.016;2022-12-08T01:54:04;96106.97;;;-3.34;100.00
61769;BME280;47669;48.712;9.016;2022-12-08T01:56:40;96106.31;;;-3.36;100.00
61769;BME280;47669;48.712;9.016;2022-12-08T01:59:10;96105.91;;;-3.41;100.00
61769;BME280;47669;48.712;9.016;2022-12-08T02:01:35;96104.66;;;-3.37;100.00
61769;BME280;47669;48.712;9.016;2022-12-08T02:04:02;96090.78;;;-3.44;100.00
61769;BME280;47669;48.712;9.016;2022-12-08T02:06:31;96092.47;;;-3.63;100.00
61769;BME280;47669;48.712;9.016;2022-12-08T02:09:00;96079.16;;;-3.58;100.00
61769;BME280;47669;48.712;9.016;2022-12-08T02:11:26;96085.75;;;-3.46;100.00
61769;BME280;47669;48.712;9.016;2022-12-08T02:13:52;96085.69;;;-3.64;100.00
61769;BME280;47669;48.712;9.016;2022-12-08T02:16:38;96085.81;;;-3.55;100.00
61769;BME280;47669;48.712;9.016;2022-12-08T02:24:38;96073.91;;;-3.39;100.00
61769;BME280;47669;48.712;9.016;2022-12-08T02:27:41;96074.66;;;-3.46;100.00
61769;BME280;47669;48.712;9.016;2022-12-08T02:30:19;96070.69;;;-3.41;100.00
61769;BME280;47669;48.712;9.016;2022-12-08T02:33:05;96065.75;;;-3.52;100.00
61769;BME280;47669;48.712;9.016;2022-12-08T02:35:43;96061.66;;;-3.54;100.00
61769;BME280;47669;48.712;9.016;2022-12-08T02:38:28;96055.66;;;-3.73;100.00
61769;BME280;47669;48.712;9.016;2022-12-08T02:43:32;96058.50;;;-3.76;100.00
61769;BME280;47669;48.712;9.016;2022-12-08T02:46:13;96053.41;;;-3.86;100.00
61769;BME280;47669;48.712;9.016;2022-12-08T02:48:42;96040.50;;;-3.76;100.00
61769;BME280;47669;48.712;9.016;2022-12-08T02:51:07;96032.06;;;-3.68;100.00
61769;BME280;47669;48.712;9.016;2022-12-08T02:53:34;96035.03;;;-3.91;100.00
61769;BME280;47669;48.712;9.016;2022-12-08T02:56:15;96028.69;;;-3.97;100.00
61769;BME280;47669;48.712;9.016;2022-12-08T02:59:05;96035.59;;;-4.07;100.00
61769;BME280;47669;48.712;9.016;2022-12-08T03:04:46;96037.19;;;-3.96;100.00
61769;BME280;47669;48.712;9.016;2022-12-08T03:07:24;96029.91;;;-4.01;100.00
61769;BME280;47669;48.712;9.016;2022-12-08T03:09:59;96020.84;;;-4.05;100.00
61769;BME280;47669;48.712;9.016;2022-12-08T03:15:02;96011.97;;;-3.83;100.00
61769;BME280;47669;48.712;9.016;2022-12-08T03:17:31;96008.38;;;-3.72;100.00
61769;BME280;47669;48.712;9.016;2022-12-08T03:20:00;96013.66;;;-3.64;100.00
61769;BME280;47669;48.712;9.016;2022-12-08T03:22:27;96020.25;;;-3.89;100.00
61769;BME280;47669;48.712;9.016;2022-12-08T03:24:54;96009.16;;;-3.99;100.00
61769;BME280;47669;48.712;9.016;2022-12-08T03:27:23;96015.78;;;-3.87;100.00
61769;BME280;47669;48.712;9.016;2022-12-08T03:29:53;96016.31;;;-3.83;100.00
61769;BME280;47669;48.712;9.016;2022-12-08T03:32:23;96016.16;;;-3.82;100.00
61769;BME280;47669;48.712;9.016;2022-12-08T03:34:53;96014.94;;;-3.87;100.00
61769;BME280;47669;48.712;9.016;2022-12-08T03:37:19;96013.56;;;-3.82;100.00
61769;BME280;47669;48.712;9.016;2022-12-08T03:39:45;96008.75;;;-3.94;100.00
61769;BME280;47669;48.712;9.016;2022-12-08T03:42:10;96007.03;;;-4.04;100.00
61769;BME280;47669;48.712;9.016;2022-12-08T03:44:36;96001.34;;;-4.07;100.00
61769;BME280;47669;48.712;9.016;2022-12-08T03:47:01;96000.41;;;-4.06;100.00
61769;BME280;47669;48.712;9.016;2022-12-08T03:49:26;95992.75;;;-4.16;100.00
61769;BME280;47669;48.712;9.016;2022-12-08T03:51:52;95991.53;;;-4.22;100.00
61769;BME280;47669;48.712;9.016;2022-12-08T03:54:17;95989.59;;;-4.10;100.00
61769;BME280;47669;48.712;9.016;2022-12-08T03:56:42;95989.47;;;-4.08;100.00
61769;BME280;47669;48.712;9.016;2022-12-08T03:59:09;95983.84;;;-4.31;100.00
61769;BME280;47669;48.712;9.016;2022-12-08T04:01:34;95988.28;;;-4.24;100.00
61769;BME280;47669;48.712;9.016;2022-12-08T04:03:59;95989.63;;;-4.20;100.00
61769;BME280;47669;48.712;9.016;2022-12-08T04:06:25;95981.53;;;-4.25;100.00
61769;BME280;47669;48.712;9.016;2022-12-08T04:08:51;95982.69;;;-4.47;100.00
61769;BME280;47669;48.712;9.016;2022-12-08T04:11:17;95983.59;;;-4.48;100.00
61769;BME280;47669;48.712;9.016;2022-12-08T04:13:42;95973.78;;;-4.15;100.00
61769;BME280;47669;48.712;9.016;2022-12-08T04:16:12;95977.22;;;-4.44;100.00
61769;BME280;47669;48.712;9.016;2022-12-08T04:18:38;95978.19;;;-4.45;100.00
61769;BME280;47669;48.712;9.016;2022-12-08T04:21:03;95968.19;;;-4.48;100.00
61769;BME280;47669;48.712;9.016;2022-12-08T04:23:29;95978.06;;;-4.43;100.00
61769;BME280;47669;48.712;9.016;2022-12-08T04:25:54;95974.16;;;-4.47;100.00
61769;BME280;47669;48.712;9.016;2022-12-08T04:28:19;95977.63;;;-4.39;100.00
61769;BME280;47669;48.712;9.016;2022-12-08T04:30:47;95967.16;;;-4.18;100.00
61769;BME280;47669;48.712;9.016;2022-12-08T04:33:12;95969.56;;;-4.06;100.00
61769;BME280;47669;48.712;9.016;2022-12-08T04:35:38;95974.16;;;-4.10;100.00
61769;BME280;47669;48.712;9.016;2022-12-08T04:38:03;95963.38;;;-4.23;100.00
61769;BME280;47669;48.712;9.016;2022-12-08T04:40:28;95967.59;;;-4.32;100.00
61769;BME280;47669;48.712;9.016;2022-12-08T04:42:54;95963.44;;;-4.05;100.00
61769;BME280;47669;48.712;9.016;2022-12-08T04:45:19;95962.88;;;-4.37;100.00
61769;BME280;47669;48.712;9.016;2022-12-08T04:47:44;95962.91;;;-4.46;100.00
61769;BME280;47669;48.712;9.016;2022-12-08T04:50:10;95957.81;;;-4.19;100.00
61769;BME280;47669;48.712;9.016;2022-12-08T04:52:35;95956.13;;;-4.38;100.00
61769;BME280;47669;48.712;9.016;2022-12-08T04:55:01;95968.81;;;-4.36;100.00
61769;BME280;47669;48.712;9.016;2022-12-08T04:57:26;95972.09;;;-4.44;100.00
61769;BME280;47669;48.712;9.016;2022-12-08T04:59:52;95966.84;;;-4.52;100.00
61769;BME280;47669;48.712;9.016;2022-12-08T05:02:17;95969.19;;;-4.59;100.00
61769;BME280;47669;48.712;9.016;2022-12-08T05:04:42;95970.66;;;-4.66;100.00
61769;BME280;47669;48.712;9.016;2022-12-08T05:07:07;95967.44;;;-4.78;100.00
61769;BME280;47669;48.712;9.016;2022-12-08T05:09:33;95973.81;;;-4.91;100.00
61769;BME280;47669;48.712;9.016;2022-12-08T05:11:58;95959.88;;;-4.79;100.00
61769;BME280;47669;48.712;9.016;2022-12-08T05:14:23;95959.75;;;-4.87;100.00
61769;BME280;47669;48.712;9.016;2022-12-08T05:16:49;95958.47;;;-4.54;100.00
61769;BME280;47669;48.712;9.016;2022-12-08T05:19:15;95950.66;;;-4.72;100.00
61769;BME280;47669;48.712;9.016;2022-12-08T05:21:41;95950.00;;;-4.74;100.00
61769;BME280;47669;48.712;9.016;2022-12-08T05:24:06;95944.22;;;-4.96;100.00
61769;BME280;47669;48.712;9.016;2022-12-08T05:26:31;95946.91;;;-4.78;100.00
61769;BME280;47669;48.712;9.016;2022-12-08T05:28:57;95945.44;;;-4.90;100.00
61769;BME280;47669;48.712;9.016;2022-12-08T05:31:23;95938.69;;;-5.01;100.00
61769;BME280;47669;48.712;9.016;2022-12-08T05:33:49;95932.72;;;-4.91;100.00
61769;BME280;47669;48.712;9.016;2022-12-08T05:36:15;95934.50;;;-5.11;100.00
61769;BME280;47669;48.712;9.016;2022-12-08T05:38:41;95943.56;;;-4.98;100.00
61769;BME280;47669;48.712;9.016;2022-12-08T05:41:09;95948.69;;;-4.98;100.00
61769;BME280;47669;48.712;9.016;2022-12-08T05:43:34;95943.66;;;-4.89;100.00
61769;BME280;47669;48.712;9.016;2022-12-08T05:46:00;95941.19;;;-4.71;100.00
61769;BME280;47669;48.712;9.016;2022-12-08T05:48:26;95939.22;;;-4.97;100.00
61769;BME280;47669;48.712;9.016;2022-12-08T05:50:51;95940.69;;;-4.95;100.00
61769;BME280;47669;48.712;9.016;2022-12-08T05:53:18;95939.41;;;-4.61;100.00
61769;BME280;47669;48.712;9.016;2022-12-08T05:55:45;95942.16;;;-4.63;100.00
61769;BME280;47669;48.712;9.016;2022-12-08T05:58:16;95941.38;;;-4.92;100.00
61769;BME280;47669;48.712;9.016;2022-12-08T06:00:42;95936.13;;;-5.10;100.00
61769;BME280;47669;48.712;9.016;2022-12-08T06:03:09;95936.66;;;-4.97;100.00
61769;BME280;47669;48.712;9.016;2022-12-08T06:05:35;95939.91;;;-5.24;100.00
61769;BME280;47669;48.712;9.016;2022-12-08T06:08:00;95937.19;;;-4.93;100.00
61769;BME280;47669;48.712;9.016;2022-12-08T06:10:26;95935.44;;;-5.03;100.00
61769;BME280;47669;48.712;9.016;2022-12-08T06:12:51;95935.44;;;-5.03;100.00
61769;BME280;47669;48.712;9.016;2022-12-08T06:15:17;95941.38;;;-4.92;100.00
61769;BME280;47669;48.712;9.016;2022-12-08T06:17:42;95939.91;;;-5.24;100.00
61769;BME280;47669;48.712;9.016;2022-12-08T06:20:08;95934.09;;;-5.07;100.00
61769;BME280;47669;48.712;9.016;2022-12-08T06:22:33;95934.22;;;-4.99;100.00
61769;BME280;47669;48.712;9.016;2022-12-08T06:24:59;95939.91;;;-5.05;100.00
61769;BME280;47669;48.712;9.016;2022-12-08T06:27:24;95942.47;;;-4.95;100.00
61769;BME280;47669;48.712;9.016;2022-12-08T06:29:49;95942.34;;;-5.13;100.00
61769;BME280;47669;48.712;9.016;2022-12-08T06:32:15;95949.25;;;-5.33;100.00
61769;BME280;47669;48.712;9.016;2022-12-08T06:34:40;95943.69;;;-5.28;100.00
61769;BME280;47669;48.712;9.016;2022-12-08T06:37:05;95947.72;;;-5.16;100.00
61769;BME280;47669;48.712;9.016;2022-12-08T06:39:31;95939.78;;;-5.23;100.00
61769;BME280;47669;48.712;9.016;2022-12-08T06:41:56;95936.53;;;-5.15;100.00
61769;BME280;47669;48.712;9.016;2022-12-08T06:44:40;95938.31;;;-5.16;100.00
61769;BME280;47669;48.712;9.016;2022-12-08T06:47:05;95928.56;;;-5.22;100.00
61769;BME280;47669;48.712;9.016;2022-12-08T06:49:30;95933.69;;;-5.22;100.00
61769;BME280;47669;48.712;9.016;2022-12-08T06:51:55;95938.44;;;-5.27;100.00
61769;BME280;47669;48.712;9.016;2022-12-08T06:54:21;95938.00;;;-5.22;100.00
61769;BME280;47669;48.712;9.016;2022-12-08T06:56:46;95935.03;;;-5.37;100.00
61769;BME280;47669;48.712;9.016;2022-12-08T06:59:11;95931.53;;;-5.26;100.00
61769;BME280;47669;48.712;9.016;2022-12-08T07:01:36;95934.91;;;-5.06;100.00
61769;BME280;47669;48.712;9.016;2022-12-08T07:04:02;95930.44;;;-5.04;100.00
61769;BME280;47669;48.712;9.016;2022-12-08T07:06:27;95940.03;;;-4.97;100.00
61769;BME280;47669;48.712;9.016;2022-12-08T07:08:52;95939.63;;;-5.02;100.00
61769;BME280;47669;48.712;9.016;2022-12-08T07:11:18;95945.56;;;-4.91;100.00
61769;BME280;47669;48.712;9.016;2022-12-08T07:13:43;95942.69;;;-4.88;100.00
61769;BME280;47669;48.712;9.016;2022-12-08T07:16:10;95936.09;;;-4.91;100.00
61769;BME280;47669;48.712;9.016;2022-12-08T07:18:36;95951.94;;;-5.05;100.00
61769;BME280;47669;48.712;9.016;2022-12-08T07:21:07;95947.06;;;-4.99;100.00
61769;BME280;47669;48.712;9.016;2022-12-08T07:23:33;95945.28;;;-4.98;100.00
61769;BME280;47669;48.712;9.016;2022-12-08T07:26:03;95945.81;;;-4.95;100.00
61769;BME280;47669;48.712;9.016;2022-12-08T07:28:31;95950.41;;;-4.98;100.00
61769;BME280;47669;48.712;9.016;2022-12-08T07:30:56;95945.28;;;-5.08;100.00
61769;BME280;47669;48.712;9.016;2022-12-08T07:33:22;95945.72;;;-5.12;100.00
61769;BME280;47669;48.712;9.016;2022-12-08T07:36:00;95946.66;;;-4.84;100.00
61769;BME280;47669;48.712;9.016;2022-12-08T07:38:27;95942.69;;;-4.59;100.00
61769;BME280;47669;48.712;9.016;2022-12-08T07:40:52;95945.19;;;-4.40;100.00
61769;BME280;47669;48.712;9.016;2022-12-08T07:43:19;95946.50;;;-4.26;100.00
61769;BME280;47669;48.712;9.016;2022-12-08T07:45:44;95941.53;;;-4.37;100.00
61769;BME280;47669;48.712;9.016;2022-12-08T07:48:09;95940.31;;;-4.05;100.00
61769;BME280;47669;48.712;9.016;2022-12-08T07:50:35;95941.06;;;-4.23;100.00
61769;BME280;47669;48.712;9.016;2022-12-08T07:53:00;95935.44;;;-4.46;100.00
61769;BME280;47669;48.712;9.016;2022-12-08T07:55:25;95936.00;;;-4.14;100.00
61769;BME280;47669;48.712;9.016;2022-12-08T07:57:51;95935.28;;;-4.07;100.00
61769;BME280;47669;48.712;9.016;2022-12-08T08:00:18;95947.00;;;-4.12;100.00
61769;BME280;47669;48.712;9.016;2022-12-08T08:02:43;95937.72;;;-4.05;100.00
61769;BME280;47669;48.712;9.016;2022-12-08T08:05:09;95943.41;;;-3.74;100.00
61769;BME280;47669;48.712;9.016;2022-12-08T08:07:36;95942.53;;;-3.47;100.00
61769;BME280;47669;48.712;9.016;2022-12-08T08:10:02;95942.34;;;-3.35;100.00
61769;BME280;47669;48.712;9.016;2022-12-08T08:12:27;95934.09;;;-3.39;100.00
61769;BME280;47669;48.712;9.016;2022-12-08T08:14:53;95932.69;;;-3.33;100.00
61769;BME280;47669;48.712;9.016;2022-12-08T08:17:18;95922.94;;;-3.30;100.00
61769;BME280;47669;48.712;9.016;2022-12-08T08:19:44;95918.41;;;-3.10;100.00
61769;BME280;47669;48.712;9.016;2022-12-08T08:22:10;95918.69;;;-2.95;100.00
61769;BME280;47669;48.712;9.016;2022-12-08T08:24:35;95928.22;;;-2.95;100.00
61769;BME280;47669;48.712;9.016;2022-12-08T08:27:00;95921.59;;;-2.72;100.00
61769;BME280;47669;48.712;9.016;2022-12-08T08:29:26;95925.28;;;-2.48;100.00
61769;BME280;47669;48.712;9.016;2022-12-08T08:31:51;95922.91;;;-2.42;100.00
61769;BME280;47669;48.712;9.016;2022-12-08T08:34:16;95930.75;;;-2.51;100.00
61769;BME280;47669;48.712;9.016;2022-12-08T08:36:42;95929.88;;;-2.34;100.00
61769;BME280;47669;48.712;9.016;2022-12-08T08:39:07;95933.13;;;-1.98;100.00
61769;BME280;47669;48.712;9.016;2022-12-08T08:41:33;95920.69;;;-2.02;100.00
61769;BME280;47669;48.712;9.016;2022-12-08T08:43:59;95920.03;;;-2.04;100.00
61769;BME280;47669;48.712;9.016;2022-12-08T08:46:24;95917.97;;;-1.92;100.00
61769;BME280;47669;48.712;9.016;2022-12-08T08:48:50;95914.16;;;-1.80;100.00
61769;BME280;47669;48.712;9.016;2022-12-08T08:51:15;95917.16;;;-1.34;100.00
61769;BME280;47669;48.712;9.016;2022-12-08T08:53:41;95917.50;;;-1.21;100.00
61769;BME280;47669;48.712;9.016;2022-12-08T08:56:11;95907.63;;;-1.17;100.00
61769;BME280;47669;48.712;9.016;2022-12-08T08:58:37;95903.47;;;-0.93;100.00
61769;BME280;47669;48.712;9.016;2022-12-08T09:01:03;95905.34;;;-0.63;100.00
61769;BME280;47669;48.712;9.016;2022-12-08T09:03:28;95904.88;;;-0.83;100.00
61769;BME280;47669;48.712;9.016;2022-12-08T09:05:54;95896.00;;;-0.88;100.00
61769;BME280;47669;48.712;9.016;2022-12-08T09:08:19;95895.47;;;-0.51;100.00
61769;BME280;47669;48.712;9.016;2022-12-08T09:10:44;95885.53;;;-0.23;100.00
61769;BME280;47669;48.712;9.016;2022-12-08T09:13:10;95882.31;;;-0.25;100.00
61769;BME280;47669;48.712;9.016;2022-12-08T09:15:35;95881.41;;;-0.01;100.00
61769;BME280;47669;48.712;9.016;2022-12-08T09:18:00;95879.88;;;0.13;100.00
61769;BME280;47669;48.712;9.016;2022-12-08T09:20:26;95881.72;;;0.05;100.00
61769;BME280;47669;48.712;9.016;2022-12-08T09:22:51;95880.66;;;0.22;100.00
61769;BME280;47669;48.712;9.016;2022-12-08T09:25:16;95880.38;;;0.40;100.00
61769;BME280;47669;48.712;9.016;2022-12-08T09:27:41;95879.22;;;0.43;100.00
61769;BME280;47669;48.712;9.016;2022-12-08T09:30:07;95868.41;;;0.62;100.00
61769;BME280;47669;48.712;9.016;2022-12-08T09:32:33;95874.81;;;0.51;100.00
61769;BME280;47669;48.712;9.016;2022-12-08T09:34:58;95863.44;;;0.61;100.00
61769;BME280;47669;48.712;9.016;2022-12-08T09:37:24;95866.47;;;-0.30;100.00
61769;BME280;47669;48.712;9.016;2022-12-08T09:39:50;95869.53;;;-0.26;100.00
61769;BME280;47669;48.712;9.016;2022-12-08T09:42:24;95868.88;;;0.43;100.00
61769;BME280;47669;48.712;9.016;2022-12-08T09:45:07;95876.94;;;-0.15;100.00
61769;BME280;47669;48.712;9.016;2022-12-08T09:47:38;95863.44;;;0.61;100.00
61769;BME280;47669;48.712;9.016;2022-12-08T09:50:39;95863.97;;;0.94;100.00
61769;BME280;47669;48.712;9.016;2022-12-08T09:53:18;95859.69;;;1.01;100.00
61769;BME280;47669;48.712;9.016;2022-12-08T09:58:51;95856.00;;;0.57;100.00
61769;BME280;47669;48.712;9.016;2022-12-08T10:01:22;95852.38;;;0.12;100.00
61769;BME280;47669;48.712;9.016;2022-12-08T10:03:48;95849.44;;;1.08;100.00
61769;BME280;47669;48.712;9.016;2022-12-08T10:06:37;95843.41;;;1.45;100.00
61769;BME280;47669;48.712;9.016;2022-12-08T10:11:59;95834.13;;;2.60;100.00
61769;BME280;47669;48.712;9.016;2022-12-08T10:14:43;95830.84;;;2.30;100.00
61769;BME280;47669;48.712;9.016;2022-12-08T10:17:16;95835.56;;;2.05;100.00
61769;BME280;47669;48.712;9.016;2022-12-08T10:19:44;95825.44;;;2.31;100.00
61769;BME280;47669;48.712;9.016;2022-12-08T10:22:19;95822.91;;;4.14;100.00
61769;BME280;47669;48.712;9.016;2022-12-08T10:25:18;95814.56;;;2.64;100.00
61769;BME280;47669;48.712;9.016;2022-12-08T10:27:47;95808.00;;;2.25;100.00
61769;BME280;47669;48.712;9.016;2022-12-08T10:30:17;95817.44;;;2.26;100.00
61769;BME280;47669;48.712;9.016;2022-12-08T10:32:48;95816.84;;;1.94;100.00
61769;BME280;47669;48.712;9.016;2022-12-08T10:35:16;95812.72;;;2.80;100.00
61769;BME280;47669;48.712;9.016;2022-12-08T10:38:01;95807.84;;;3.26;100.00
61769;BME280;47669;48.712;9.016;2022-12-08T10:40:34;95805.38;;;2.04;100.00
61769;BME280;47669;48.712;9.016;2022-12-08T10:43:02;95808.31;;;1.79;100.00
61769;BME280;47669;48.712;9.016;2022-12-08T10:45:36;95804.38;;;2.41;100.00
61769;BME280;47669;48.712;9.016;2022-12-08T10:48:14;95797.03;;;1.72;100.00
61769;BME280;47669;48.712;9.016;2022-12-08T10:51:01;95799.75;;;2.36;100.00
61769;BME280;47669;48.712;9.016;2022-12-08T10:53:33;95792.06;;;2.50;100.00
61769;BME280;47669;48.712;9.016;2022-12-08T10:56:14;95797.63;;;2.25;100.00
61769;BME280;47669;48.712;9.016;2022-12-08T10:58:42;95790.25;;;2.29;100.00
61769;BME280;47669;48.712;9.016;2022-12-08T11:01:47;95787.34;;;1.81;100.00
61769;BME280;47669;48.712;9.016;2022-12-08T11:04:12;95786.94;;;1.62;100.00
61769;BME280;47669;48.712;9.016;2022-12-08T11:06:40;95774.19;;;3.18;100.00
61769;BME280;47669;48.712;9.016;2022-12-08T11:09:22;95767.66;;;3.29;100.00
61769;BME280;47669;48.712;9.016;2022-12-08T11:11:49;95766.00;;;1.64;100.00
61769;BME280;47669;48.712;9.016;2022-12-08T11:14:18;95756.63;;;2.70;100.00
61769;BME280;47669;48.712;9.016;2022-12-08T11:16:46;95763.00;;;2.89;100.00
61769;BME280;47669;48.712;9.016;2022-12-08T11:19:16;95757.66;;;2.69;100.00
61769;BME280;47669;48.712;9.016;2022-12-08T11:21:42;95749.38;;;3.15;100.00
61769;BME280;47669;48.712;9.016;2022-12-08T11:24:26;95746.69;;;3.02;100.00
61769;BME280;47669;48.712;9.016;2022-12-08T11:27:04;95742.31;;;2.31;100.00
61769;BME280;47669;48.712;9.016;2022-12-08T11:29:33;95739.69;;;2.25;100.00
61769;BME280;47669;48.712;9.016;2022-12-08T11:32:10;95740.72;;;2.52;100.00
61769;BME280;47669;48.712;9.016;2022-12-08T11:34:43;95734.78;;;2.15;100.00
61769;BME280;47669;48.712;9.016;2022-12-08T11:37:17;95733.00;;;2.15;100.00
61769;BME280;47669;48.712;9.016;2022-12-08T11:39:48;95733.38;;;1.91;100.00
61769;BME280;47669;48.712;9.016;2022-12-08T11:42:17;95747.75;;;1.93;100.00
61769;BME280;47669;48.712;9.016;2022-12-08T11:44:58;95736.19;;;1.96;100.00
61769;BME280;47669;48.712;9.016;2022-12-08T11:47:30;95739.06;;;1.65;100.00
61769;BME280;47669;48.712;9.016;2022-12-08T11:50:20;95732.19;;;1.57;100.00
61769;BME280;47669;48.712;9.016;2022-12-08T11:52:51;95727.66;;;2.02;100.00
61769;BME280;47669;48.712;9.016;2022-12-08T11:58:15;95727.41;;;1.75;100.00
61769;BME280;47669;48.712;9.016;2022-12-08T12:00:42;95729.50;;;1.87;100.00
61769;BME280;47669;48.712;9.016;2022-12-08T12:03:22;95727.28;;;1.84;100.00
61769;BME280;47669;48.712;9.016;2022-12-08T12:06:11;95721.84;;;1.78;100.00
61769;BME280;47669;48.712;9.016;2022-12-08T12:19:58;95712.28;;;2.01;100.00
61769;BME280;47669;48.712;9.016;2022-12-08T12:22:31;95707.78;;;1.73;100.00
61769;BME280;47669;48.712;9.016;2022-12-08T12:24:59;95708.47;;;2.18;100.00
61769;BME280;47669;48.712;9.016;2022-12-08T12:27:37;95713.22;;;1.93;100.00
61769;BME280;47669;48.712;9.016;2022-12-08T12:30:06;95703.25;;;2.18;100.00
61769;BME280;47669;48.712;9.016;2022-12-08T12:32:52;95697.94;;;2.05;100.00
61769;BME280;47669;48.712;9.016;2022-12-08T12:35:40;95692.22;;;2.66;100.00
61769;BME280;47669;48.712;9.016;2022-12-08T12:38:18;95685.31;;;1.80;100.00
61769;BME280;47669;48.712;9.016;2022-12-08T12:41:05;95689.63;;;1.94;100.00
61769;BME280;47669;48.712;9.016;2022-12-08T12:43:36;95682.63;;;2.94;100.00
61769;BME280;47669;48.712;9.016;2022-12-08T12:48:50;95682.41;;;2.11;100.00
61769;BME280;47669;48.712;9.016;2022-12-08T12:51:44;95684.50;;;2.23;100.00
61769;BME280;47669;48.712;9.016;2022-12-08T12:54:23;95673.75;;;1.83;100.00
61769;BME280;47669;48.712;9.016;2022-12-08T12:56:50;95675.50;;;1.97;100.00
61769;BME280;47669;48.712;9.016;2022-12-08T12:59:33;95667.22;;;2.08;100.00
61769;BME280;47669;48.712;9.016;2022-12-08T13:01:59;95670.59;;;2.59;100.00
61769;BME280;47669;48.712;9.016;2022-12-08T13:04:29;95670.22;;;2.12;100.00
61769;BME280;47669;48.712;9.016;2022-12-08T13:06:56;95668.94;;;1.80;100.00
61769;BME280;47669;48.712;9.016;2022-12-08T13:09:26;95670.66;;;1.72;100.00
61769;BME280;47669;48.712;9.016;2022-12-08T13:11:55;95671.09;;;1.97;100.00
61769;BME280;47669;48.712;9.016;2022-12-08T13:14:33;95675.06;;;1.72;100.00
61769;BME280;47669;48.712;9.016;2022-12-08T13:17:00;95672.06;;;1.75;100.00
61769;BME280;47669;48.712;9.016;2022-12-08T13:19:30;95673.78;;;1.46;100.00
61769;BME280;47669;48.712;9.016;2022-12-08T13:21:56;95666.84;;;1.32;100.00
61769;BME280;47669;48.712;9.016;2022-12-08T13:29:34;95671.34;;;1.60;100.00
61769;BME280;47669;48.712;9.016;2022-12-08T13:32:03;95673.22;;;1.66;100.00
61769;BME280;47669;48.712;9.016;2022-12-08T13:34:48;95664.28;;;1.75;100.00
61769;BME280;47669;48.712;9.016;2022-12-08T13:37:21;95666.97;;;1.60;100.00
61769;BME280;47669;48.712;9.016;2022-12-08T13:40:13;95667.78;;;1.46;100.00
61769;BME280;47669;48.712;9.016;2022-12-08T13:43:08;95670.63;;;1.51;100.00
61769;BME280;47669;48.712;9.016;2022-12-08T13:45:40;95667.53;;;1.41;100.00
61769;BME280;47669;48.712;9.016;2022-12-08T13:48:24;95661.13;;;1.36;100.00
61769;BME280;47669;48.712;9.016;2022-12-08T13:50:55;95664.28;;;1.53;100.00